Terminal Aerodrome Forecast
Issued by NWS

Home | Current Version | Previous Version | Graphics & Text | Print | Product List | Glossary On
Versions: 1 2 3 4 5 6 7 8 9 10 11 12 13 14 15 16 17
000
FTUS43 KMPX 091133
TAFAXN
TAF
KAXN 091133Z 0912/1012 34011KT P6SM -SHSN OVC025
     FM091600 32009KT P6SM BKN200
     FM092300 23010KT P6SM OVC090
     FM100500 30012KT P6SM BKN250=

USA.gov is the U.S. government's official web portal to all federal, state and local government web resources and services.